createdAt,value
2023-05-17T00:01:47.453Z,7.20
2023-05-17T00:04:14.336Z,7.14
2023-05-17T00:06:43.505Z,7.19
2023-05-17T00:09:10.541Z,7.22
2023-05-17T00:11:37.388Z,7.15
2023-05-17T00:14:04.847Z,7.24
2023-05-17T00:16:31.860Z,7.41
2023-05-17T00:19:01.459Z,7.38
2023-05-17T00:21:31.439Z,7.29
2023-05-17T00:23:58.357Z,7.12
2023-05-17T00:26:25.370Z,7.13
2023-05-17T00:28:52.349Z,7.13
2023-05-17T00:31:19.243Z,7.15
2023-05-17T00:33:47.563Z,7.11
2023-05-17T00:36:15.380Z,7.02
2023-05-17T00:38:42.180Z,6.92
2023-05-17T00:41:09.431Z,6.86
2023-05-17T00:43:36.272Z,6.75
2023-05-17T00:46:03.584Z,6.83
2023-05-17T00:48:33.766Z,6.95
2023-05-17T00:51:00.872Z,7.09
2023-05-17T00:53:28.981Z,7.19
2023-05-17T00:55:56.214Z,7.19
2023-05-17T00:58:24.641Z,7.09
2023-05-17T01:00:51.905Z,6.87
2023-05-17T01:03:24.651Z,6.93
2023-05-17T01:05:51.992Z,6.85
2023-05-17T01:08:18.758Z,6.95
2023-05-17T01:11:44.253Z,6.83
2023-05-17T01:14:29.427Z,6.83
2023-05-17T01:17:05.100Z,7.00
2023-05-17T01:19:55.181Z,7.08
2023-05-17T01:22:50.945Z,7.00
2023-05-17T01:25:57.429Z,6.85
2023-05-17T01:28:27.421Z,6.72
2023-05-17T01:30:58.530Z,6.61
2023-05-17T01:33:27.577Z,6.57
2023-05-17T01:35:54.492Z,6.59
2023-05-17T01:38:21.612Z,6.57
2023-05-17T01:41:23.141Z,6.72
2023-05-17T01:44:17.534Z,6.79
2023-05-17T01:46:44.397Z,6.75
2023-05-17T01:49:23.978Z,6.77
2023-05-17T01:52:17.511Z,6.61
2023-05-17T01:55:06.399Z,6.53
2023-05-17T01:57:37.063Z,6.51
2023-05-17T02:00:12.077Z,6.66
2023-05-17T02:02:39.042Z,6.70
2023-05-17T02:05:08.623Z,6.71
2023-05-17T02:07:36.399Z,6.76
2023-05-17T02:10:03.753Z,6.68
2023-05-17T02:12:30.621Z,6.75
2023-05-17T02:14:57.430Z,6.63
2023-05-17T02:17:24.465Z,6.63
2023-05-17T02:19:51.656Z,6.57
2023-05-17T02:22:19.003Z,6.42
2023-05-17T02:24:46.748Z,6.43
2023-05-17T02:27:13.561Z,6.51
2023-05-17T02:29:40.393Z,6.65
2023-05-17T02:32:07.661Z,6.65
2023-05-17T02:34:34.471Z,6.62
2023-05-17T02:37:01.241Z,6.51
2023-05-17T02:39:28.077Z,6.38
2023-05-17T02:41:57.930Z,6.26
2023-05-17T02:44:25.049Z,6.36
2023-05-17T02:46:51.927Z,6.44
2023-05-17T02:49:19.254Z,6.45
2023-05-17T02:51:46.566Z,6.49
2023-05-17T02:54:16.240Z,6.40
2023-05-17T02:56:44.305Z,6.19
2023-05-17T02:59:11.323Z,6.09
2023-05-17T03:01:38.154Z,6.11
2023-05-17T03:04:05.204Z,6.19
2023-05-17T03:06:32.213Z,6.27
2023-05-17T03:08:59.261Z,6.28
2023-05-17T03:11:26.512Z,6.16
2023-05-17T03:13:53.312Z,6.13
2023-05-17T03:16:20.762Z,6.13
2023-05-17T03:18:48.092Z,6.12
2023-05-17T03:21:15.076Z,6.13
2023-05-17T03:23:41.949Z,6.18
2023-05-17T03:26:09.103Z,6.10
2023-05-17T03:28:35.903Z,6.10
2023-05-17T03:31:02.894Z,6.19
2023-05-17T03:33:29.910Z,6.25
2023-05-17T03:35:56.729Z,6.13
2023-05-17T03:38:23.616Z,6.14
2023-05-17T03:40:53.190Z,6.00
2023-05-17T03:43:22.697Z,6.08
2023-05-17T03:45:49.563Z,6.10
2023-05-17T03:48:16.526Z,6.10
2023-05-17T03:50:43.519Z,6.01
2023-05-17T03:53:10.739Z,5.95
2023-05-17T03:55:38.141Z,5.86
2023-05-17T03:58:04.957Z,5.83
2023-05-17T04:00:31.951Z,6.03
2023-05-17T04:02:58.970Z,6.13
2023-05-17T04:05:26.869Z,6.16
2023-05-17T04:07:54.441Z,6.18
2023-05-17T04:10:22.512Z,6.19
2023-05-17T04:12:49.917Z,6.08
2023-05-17T04:15:16.760Z,6.11
2023-05-17T04:17:43.667Z,6.03
2023-05-17T04:20:11.542Z,5.90
2023-05-17T04:22:38.340Z,5.96
2023-05-17T04:25:06.016Z,6.04
2023-05-17T04:27:32.869Z,5.93
2023-05-17T04:29:59.717Z,5.86
2023-05-17T04:32:28.000Z,5.95
2023-05-17T04:34:56.224Z,6.08
2023-05-17T04:37:23.139Z,6.10
2023-05-17T04:39:51.525Z,6.14
2023-05-17T04:42:18.562Z,6.20
2023-05-17T04:44:45.580Z,6.31
2023-05-17T04:47:12.418Z,6.37
2023-05-17T04:49:39.243Z,6.29
2023-05-17T04:52:06.445Z,6.36
2023-05-17T04:54:33.343Z,6.39
2023-05-17T04:57:00.120Z,6.42
2023-05-17T04:59:26.891Z,6.47
2023-05-17T05:01:53.660Z,6.56
2023-05-17T05:04:20.656Z,6.58
2023-05-17T05:06:47.792Z,6.67
2023-05-17T05:09:15.710Z,6.66
2023-05-17T05:11:42.535Z,6.74
2023-05-17T05:14:09.401Z,6.90
2023-05-17T05:16:36.709Z,6.96
2023-05-17T05:19:03.826Z,7.00
2023-05-17T05:21:31.282Z,7.07
2023-05-17T05:23:58.136Z,7.22
2023-05-17T05:26:25.053Z,7.21
2023-05-17T05:28:52.011Z,7.27
2023-05-17T05:31:19.020Z,7.50
2023-05-17T05:33:46.280Z,7.73
2023-05-17T05:36:13.126Z,7.77
2023-05-17T05:38:40.125Z,7.80
2023-05-17T05:41:06.987Z,7.87
2023-05-17T05:43:35.947Z,7.98
2023-05-17T05:46:03.131Z,8.07
2023-05-17T05:48:30.084Z,8.16
2023-05-17T05:50:57.051Z,8.23
2023-05-17T05:53:23.930Z,8.31
2023-05-17T05:55:50.969Z,8.44
2023-05-17T05:58:17.757Z,8.54
2023-05-17T06:00:44.695Z,8.61
2023-05-17T06:03:11.907Z,8.65
2023-05-17T06:05:40.276Z,8.74
2023-05-17T06:08:09.329Z,8.88
2023-05-17T06:10:36.202Z,8.95
2023-05-17T06:13:03.144Z,9.03
2023-05-17T06:15:32.336Z,9.09
2023-05-17T06:17:59.740Z,9.14
2023-05-17T06:20:26.721Z,9.18
2023-05-17T06:22:53.919Z,9.30
2023-05-17T06:25:20.995Z,9.39
2023-05-17T06:27:47.956Z,9.46
2023-05-17T06:30:15.176Z,9.59
2023-05-17T06:32:42.254Z,9.66
2023-05-17T06:35:10.094Z,9.75
2023-05-17T06:37:37.137Z,9.80
2023-05-17T06:40:14.779Z,9.87
2023-05-17T06:42:43.444Z,9.94
2023-05-17T06:45:11.198Z,9.95
2023-05-17T06:47:38.285Z,9.98
2023-05-17T06:50:06.821Z,10.03
2023-05-17T06:52:33.966Z,10.07
2023-05-17T06:55:00.851Z,10.12
2023-05-17T06:57:27.922Z,10.24
2023-05-17T06:59:54.763Z,10.34
2023-05-17T07:02:21.819Z,10.43
2023-05-17T07:04:49.820Z,10.52
2023-05-17T07:07:16.687Z,10.55
2023-05-17T07:09:43.562Z,10.52
2023-05-17T07:12:10.441Z,10.53
2023-05-17T07:14:37.411Z,10.60
2023-05-17T07:17:04.628Z,10.63
2023-05-17T07:19:31.596Z,10.62
2023-05-17T07:21:58.458Z,10.63
2023-05-17T07:24:25.895Z,10.73
2023-05-17T07:26:52.954Z,10.98
2023-05-17T07:29:19.892Z,11.13
2023-05-17T07:31:46.754Z,11.09
2023-05-17T07:34:14.339Z,11.09
2023-05-17T07:36:41.449Z,11.15
2023-05-17T07:39:09.903Z,11.17
2023-05-17T07:41:36.997Z,11.18
2023-05-17T07:44:04.009Z,11.24
2023-05-17T07:46:30.957Z,11.46
2023-05-17T07:48:58.987Z,11.59
2023-05-17T07:51:26.289Z,11.61
2023-05-17T07:53:53.328Z,11.51
2023-05-17T07:56:20.494Z,11.43
2023-05-17T07:58:47.315Z,11.53
2023-05-17T08:01:14.298Z,11.53
2023-05-17T08:03:48.302Z,11.47
2023-05-17T08:06:16.698Z,11.54
2023-05-17T08:08:44.591Z,11.69
2023-05-17T08:11:14.072Z,11.93
2023-05-17T08:13:41.485Z,12.00
2023-05-17T08:16:14.066Z,11.99
2023-05-17T08:18:43.526Z,12.46
2023-05-17T08:21:13.282Z,12.89
2023-05-17T08:23:41.841Z,12.96
2023-05-17T08:26:08.684Z,12.72
2023-05-17T08:28:35.830Z,12.48
2023-05-17T08:31:04.147Z,12.26
2023-05-17T08:33:31.096Z,12.50
2023-05-17T08:36:02.949Z,12.87
2023-05-17T08:38:29.915Z,13.34
2023-05-17T08:40:59.763Z,13.51
2023-05-17T08:43:28.293Z,13.37
2023-05-17T08:45:58.138Z,13.46
2023-05-17T08:48:31.279Z,13.39
2023-05-17T08:51:00.008Z,13.28
2023-05-17T08:53:27.310Z,13.24
2023-05-17T08:56:03.998Z,13.21
2023-05-17T08:58:54.883Z,13.27
2023-05-17T09:01:25.803Z,13.33
2023-05-17T09:03:53.820Z,13.31
2023-05-17T09:06:22.738Z,13.33
2023-05-17T09:08:54.977Z,13.19
2023-05-17T09:11:29.974Z,13.06
2023-05-17T09:14:06.642Z,12.90
2023-05-17T09:16:38.170Z,12.85
2023-05-17T09:19:07.589Z,12.84
2023-05-17T09:21:36.991Z,12.78
2023-05-17T09:24:07.749Z,12.77
2023-05-17T09:26:44.233Z,12.78
2023-05-17T09:29:16.899Z,12.76
2023-05-17T09:31:44.874Z,12.73
2023-05-17T09:34:17.908Z,12.83
2023-05-17T09:36:44.756Z,12.95
2023-05-17T09:39:13.594Z,13.05
2023-05-17T09:41:51.258Z,13.10
2023-05-17T09:44:18.140Z,13.09
2023-05-17T09:46:47.791Z,13.09
2023-05-17T09:49:16.731Z,13.04
2023-05-17T09:51:49.131Z,13.01
2023-05-17T09:54:17.633Z,12.93
2023-05-17T09:56:45.149Z,13.01
2023-05-17T09:59:14.768Z,13.09
2023-05-17T10:01:45.047Z,13.07
2023-05-17T10:04:13.704Z,13.18
2023-05-17T10:06:48.836Z,13.36
2023-05-17T10:09:18.598Z,13.60
2023-05-17T10:11:47.225Z,13.72
2023-05-17T10:14:32.722Z,13.80
2023-05-17T10:17:03.194Z,13.74
2023-05-17T10:19:31.325Z,13.80
2023-05-17T10:22:11.068Z,13.76
2023-05-17T10:24:48.733Z,13.71
2023-05-17T10:27:16.354Z,13.71
2023-05-17T10:29:47.702Z,13.70
2023-05-17T10:32:19.478Z,13.77
2023-05-17T10:35:01.418Z,13.80
2023-05-17T10:37:34.594Z,13.73
2023-05-17T10:40:01.897Z,13.78
2023-05-17T10:42:31.697Z,13.87
2023-05-17T10:45:01.638Z,13.96
2023-05-17T10:47:34.988Z,13.91
2023-05-17T10:50:08.952Z,13.82
2023-05-17T10:52:45.234Z,13.80
2023-05-17T10:55:12.557Z,13.82
2023-05-17T10:57:50.708Z,13.96
2023-05-17T11:00:27.683Z,14.13
2023-05-17T11:03:19.668Z,14.27
2023-05-17T11:06:19.449Z,14.27
2023-05-17T11:09:16.577Z,14.20
2023-05-17T11:12:08.190Z,14.19
2023-05-17T11:14:48.823Z,14.03
2023-05-17T11:17:38.160Z,13.96
2023-05-17T11:20:13.106Z,13.92
2023-05-17T11:22:58.660Z,13.88
2023-05-17T11:25:37.158Z,13.94
2023-05-17T11:28:22.979Z,14.09
2023-05-17T11:30:53.614Z,14.18
2023-05-17T11:33:37.410Z,14.28
2023-05-17T11:36:13.307Z,14.61
2023-05-17T11:38:40.342Z,14.88
2023-05-17T11:43:49.797Z,15.28
2023-05-17T11:46:22.655Z,15.31
2023-05-17T11:48:53.735Z,15.25
2023-05-17T11:51:23.881Z,15.26
2023-05-17T11:53:55.914Z,15.37
2023-05-17T11:56:41.961Z,15.42
2023-05-17T11:59:10.684Z,15.32
2023-05-17T12:01:48.771Z,15.34
2023-05-17T12:04:25.833Z,15.37
2023-05-17T12:06:58.055Z,15.47
2023-05-17T12:09:26.359Z,15.57
2023-05-17T12:11:53.533Z,15.63
2023-05-17T12:14:21.659Z,15.60
2023-05-17T12:16:56.593Z,15.58
2023-05-17T12:19:27.169Z,15.55
2023-05-17T12:21:54.235Z,15.57
2023-05-17T12:24:21.423Z,15.54
2023-05-17T12:26:48.676Z,15.61
2023-05-17T12:29:22.700Z,15.72
2023-05-17T12:31:53.735Z,15.72
2023-05-17T12:34:21.897Z,15.81
2023-05-17T12:36:49.682Z,15.76
2023-05-17T12:39:18.031Z,15.69
2023-05-17T12:41:45.426Z,15.60
2023-05-17T12:44:16.571Z,15.44
2023-05-17T12:46:45.465Z,15.26
2023-05-17T12:49:13.045Z,15.14
2023-05-17T12:51:45.875Z,15.00
2023-05-17T12:54:16.229Z,14.90
2023-05-17T12:56:44.606Z,14.81
2023-05-17T12:59:13.534Z,14.85
2023-05-17T13:01:49.862Z,14.90
2023-05-17T13:04:19.497Z,14.99
2023-05-17T13:06:53.216Z,15.14
2023-05-17T13:09:26.319Z,15.28
2023-05-17T13:12:00.874Z,15.33
2023-05-17T13:14:49.200Z,15.04
2023-05-17T13:17:33.730Z,14.96
2023-05-17T13:20:10.502Z,14.88
2023-05-17T13:22:48.119Z,14.88
2023-05-17T13:25:16.001Z,14.77
2023-05-17T13:27:46.712Z,14.80
2023-05-17T13:30:15.549Z,14.87
2023-05-17T13:32:43.295Z,14.94
2023-05-17T13:35:10.806Z,15.03
2023-05-17T13:37:37.881Z,15.19
2023-05-17T13:40:05.786Z,15.26
2023-05-17T13:42:33.121Z,15.32
2023-05-17T13:45:01.443Z,15.40
2023-05-17T13:47:32.590Z,15.49
2023-05-17T13:50:00.728Z,15.55
2023-05-17T13:52:28.165Z,15.68
2023-05-17T13:54:55.055Z,15.89
2023-05-17T13:57:21.881Z,16.09
2023-05-17T13:59:49.037Z,16.17
2023-05-17T14:02:15.862Z,16.33
2023-05-17T14:04:42.733Z,16.54
2023-05-17T14:07:09.605Z,16.71
2023-05-17T14:09:36.828Z,17.27
2023-05-17T14:12:04.254Z,18.25
2023-05-17T14:14:31.509Z,17.65
2023-05-17T14:16:58.537Z,17.18
2023-05-17T14:19:28.336Z,16.75
2023-05-17T14:21:55.437Z,16.50
2023-05-17T14:24:22.491Z,16.30
2023-05-17T14:26:49.616Z,16.15
2023-05-17T14:29:16.763Z,16.03
2023-05-17T14:31:43.559Z,16.10
2023-05-17T14:34:10.443Z,16.22
2023-05-17T14:36:38.252Z,16.65
2023-05-17T14:39:05.559Z,16.98
2023-05-17T14:41:32.704Z,17.04
2023-05-17T14:43:59.580Z,17.09
2023-05-17T14:46:26.958Z,17.38
2023-05-17T14:48:56.232Z,17.08
2023-05-17T14:51:23.170Z,17.39
2023-05-17T14:53:49.958Z,17.99
2023-05-17T14:56:17.651Z,17.72
2023-05-17T14:58:44.565Z,17.05
2023-05-17T15:01:11.710Z,16.47
2023-05-17T15:03:41.648Z,16.52
2023-05-17T15:06:11.077Z,16.93
2023-05-17T15:08:39.335Z,16.78
2023-05-17T15:11:06.292Z,17.01
2023-05-17T15:13:33.062Z,17.25
2023-05-17T15:16:03.355Z,17.10
2023-05-17T15:18:31.265Z,16.91
2023-05-17T15:20:58.172Z,16.54
2023-05-17T15:23:25.067Z,16.42
2023-05-17T15:25:53.552Z,17.15
2023-05-17T15:28:21.194Z,17.66
2023-05-17T15:30:48.076Z,17.48
2023-05-17T15:33:15.065Z,17.79
2023-05-17T15:35:42.030Z,18.22
2023-05-17T15:38:08.970Z,17.69
2023-05-17T15:40:35.804Z,16.94
2023-05-17T15:43:02.894Z,16.49
2023-05-17T15:45:30.000Z,16.20
2023-05-17T15:47:57.344Z,16.15
2023-05-17T15:50:24.341Z,16.13
2023-05-17T15:52:51.376Z,16.14
2023-05-17T15:55:18.370Z,16.09
2023-05-17T15:57:46.436Z,16.02
2023-05-17T16:00:14.038Z,15.86
2023-05-17T16:02:41.026Z,15.79
2023-05-17T16:05:08.657Z,15.74
2023-05-17T16:07:35.546Z,15.58
2023-05-17T16:10:02.831Z,15.54
2023-05-17T16:12:29.914Z,15.52
2023-05-17T16:14:57.534Z,15.42
2023-05-17T16:17:24.430Z,15.40
2023-05-17T16:19:51.667Z,15.33
2023-05-17T16:22:18.476Z,15.27
2023-05-17T16:24:45.406Z,15.29
2023-05-17T16:27:12.217Z,15.32
2023-05-17T16:29:40.205Z,15.26
2023-05-17T16:32:08.242Z,15.23
2023-05-17T16:34:36.313Z,15.25
2023-05-17T16:37:04.482Z,15.17
2023-05-17T16:39:31.551Z,15.04
2023-05-17T16:41:58.432Z,14.99
2023-05-17T16:44:25.253Z,14.99
2023-05-17T16:46:52.105Z,14.97
2023-05-17T16:49:18.937Z,14.89
2023-05-17T16:51:45.899Z,14.80
2023-05-17T16:54:12.659Z,14.77
2023-05-17T16:56:39.482Z,14.76
2023-05-17T16:59:06.359Z,14.80
2023-05-17T17:01:33.741Z,14.79
2023-05-17T17:04:00.763Z,14.77
2023-05-17T17:06:28.015Z,14.66
2023-05-17T17:08:55.025Z,14.58
2023-05-17T17:11:21.959Z,14.59
2023-05-17T17:13:49.836Z,14.63
2023-05-17T17:16:17.324Z,14.65
2023-05-17T17:18:47.075Z,14.55
2023-05-17T17:21:17.626Z,14.50
2023-05-17T17:23:45.970Z,14.47
2023-05-17T17:26:13.340Z,14.47
2023-05-17T17:28:40.190Z,14.43
2023-05-17T17:31:07.647Z,14.40
2023-05-17T17:33:35.704Z,14.33
2023-05-17T17:36:09.043Z,14.36
2023-05-17T17:38:36.344Z,14.40
2023-05-17T17:41:03.475Z,14.37
2023-05-17T17:43:32.853Z,14.34
2023-05-17T17:46:00.380Z,14.29
2023-05-17T17:48:27.484Z,14.25
2023-05-17T17:50:54.374Z,14.26
2023-05-17T17:53:22.498Z,14.23
2023-05-17T17:55:49.358Z,14.17
2023-05-17T17:58:16.279Z,14.12
2023-05-17T18:00:43.096Z,14.03
2023-05-17T18:03:09.932Z,13.98
2023-05-17T18:05:36.874Z,13.94
2023-05-17T18:08:04.033Z,13.92
2023-05-17T18:10:31.655Z,13.84
2023-05-17T18:12:59.625Z,13.82
2023-05-17T18:15:26.563Z,13.80
2023-05-17T18:17:54.705Z,13.77
2023-05-17T18:20:26.150Z,13.74
2023-05-17T18:22:53.364Z,13.71
2023-05-17T18:25:21.472Z,13.65
2023-05-17T18:27:48.300Z,13.56
2023-05-17T18:30:15.726Z,13.46
2023-05-17T18:32:42.776Z,13.35
2023-05-17T18:35:10.585Z,13.23
2023-05-17T18:37:37.439Z,13.19
2023-05-17T18:40:05.248Z,13.11
2023-05-17T18:42:32.062Z,13.03
2023-05-17T18:44:59.812Z,12.95
2023-05-17T18:47:27.800Z,12.84
2023-05-17T18:49:54.787Z,12.67
2023-05-17T18:52:21.651Z,12.45
2023-05-17T18:54:48.650Z,12.30
2023-05-17T18:57:15.628Z,12.19
2023-05-17T18:59:42.511Z,12.07
2023-05-17T19:02:09.330Z,11.87
2023-05-17T19:04:36.658Z,11.70
2023-05-17T19:07:03.968Z,11.55
2023-05-17T19:09:32.253Z,11.50
2023-05-17T19:11:59.249Z,11.48
2023-05-17T19:14:26.410Z,11.44
2023-05-17T19:16:56.675Z,11.48
2023-05-17T19:19:25.205Z,11.52
2023-05-17T19:21:52.255Z,11.43
2023-05-17T19:24:19.067Z,11.30
2023-05-17T19:26:45.953Z,11.10
2023-05-17T19:29:12.767Z,10.95
2023-05-17T19:31:39.579Z,10.87
2023-05-17T19:34:06.452Z,10.86
2023-05-17T19:36:33.391Z,10.91
2023-05-17T19:39:00.632Z,10.95
2023-05-17T19:41:30.484Z,10.88
2023-05-17T19:43:57.298Z,10.83
2023-05-17T19:46:24.237Z,10.77
2023-05-17T19:48:51.644Z,10.75
2023-05-17T19:51:18.470Z,10.76
2023-05-17T19:53:53.319Z,10.76
2023-05-17T19:56:24.321Z,10.61
2023-05-17T19:58:52.496Z,10.58
2023-05-17T20:01:21.833Z,10.60
2023-05-17T20:03:49.150Z,10.56
2023-05-17T20:06:16.081Z,10.45
2023-05-17T20:08:45.366Z,10.44
2023-05-17T20:11:12.684Z,10.39
2023-05-17T20:13:40.424Z,10.32
2023-05-17T20:16:12.677Z,10.18
2023-05-17T20:18:44.967Z,10.14
2023-05-17T20:21:21.656Z,10.03
2023-05-17T20:23:56.398Z,9.97
2023-05-17T20:26:26.939Z,9.92
2023-05-17T20:28:54.122Z,9.92
2023-05-17T20:31:21.925Z,9.95
2023-05-17T20:33:49.093Z,9.93
2023-05-17T20:36:16.150Z,9.95
2023-05-17T20:38:43.290Z,9.94
2023-05-17T20:41:11.038Z,9.89
2023-05-17T20:43:37.890Z,9.75
2023-05-17T20:46:06.652Z,9.70
2023-05-17T20:48:34.576Z,9.66
2023-05-17T20:51:02.894Z,9.62
2023-05-17T20:53:30.651Z,9.64
2023-05-17T20:55:58.904Z,9.57
2023-05-17T20:58:29.249Z,9.53
2023-05-17T21:00:58.045Z,9.49
2023-05-17T21:03:28.243Z,9.39
2023-05-17T21:05:58.584Z,9.36
2023-05-17T21:08:27.370Z,9.37
2023-05-17T21:10:55.828Z,9.28
2023-05-17T21:13:25.424Z,9.29
2023-05-17T21:15:54.118Z,9.39
2023-05-17T21:18:24.055Z,9.29
2023-05-17T21:20:52.467Z,9.19
2023-05-17T21:23:19.581Z,9.08
2023-05-17T21:25:46.528Z,9.10
2023-05-17T21:28:13.620Z,9.16
2023-05-17T21:30:41.010Z,8.99
2023-05-17T21:33:10.916Z,9.00
2023-05-17T21:35:37.983Z,8.86
2023-05-17T21:38:07.472Z,8.92
2023-05-17T21:40:34.758Z,8.98
2023-05-17T21:43:06.811Z,8.97
2023-05-17T21:45:36.635Z,8.92
2023-05-17T21:48:03.870Z,8.73
2023-05-17T21:50:31.062Z,8.75
2023-05-17T21:52:58.084Z,8.69
2023-05-17T21:55:25.487Z,8.63
2023-05-17T21:57:52.968Z,8.53
2023-05-17T22:00:20.213Z,8.50
2023-05-17T22:02:48.750Z,8.46
2023-05-17T22:05:15.797Z,8.47
2023-05-17T22:07:46.525Z,8.56
2023-05-17T22:10:14.366Z,8.53
2023-05-17T22:12:41.804Z,8.53
2023-05-17T22:15:09.705Z,8.34
2023-05-17T22:17:47.815Z,8.23
2023-05-17T22:20:19.595Z,8.17
2023-05-17T22:22:46.646Z,8.08
2023-05-17T22:25:15.732Z,8.11
2023-05-17T22:27:43.203Z,8.20
2023-05-17T22:30:10.761Z,8.29
2023-05-17T22:32:37.745Z,8.32
2023-05-17T22:35:05.593Z,8.19
2023-05-17T22:37:32.864Z,8.16
2023-05-17T22:39:59.761Z,8.21
2023-05-17T22:42:26.631Z,8.09
2023-05-17T22:44:53.451Z,8.02
2023-05-17T22:47:23.041Z,7.81
2023-05-17T22:49:52.468Z,7.78
2023-05-17T22:52:19.830Z,7.81
2023-05-17T22:54:46.647Z,7.78
2023-05-17T22:57:13.567Z,7.60
2023-05-17T22:59:43.726Z,7.54
2023-05-17T23:02:12.532Z,7.50
2023-05-17T23:04:40.225Z,7.54
2023-05-17T23:07:09.724Z,7.46
2023-05-17T23:09:40.974Z,7.53
2023-05-17T23:12:13.789Z,7.57
2023-05-17T23:14:40.586Z,7.57
2023-05-17T23:17:08.915Z,7.44
2023-05-17T23:19:35.928Z,7.32
2023-05-17T23:22:03.416Z,7.30
2023-05-17T23:24:30.473Z,7.24
2023-05-17T23:26:57.638Z,7.28
2023-05-17T23:29:25.998Z,7.20
2023-05-17T23:31:53.608Z,7.10
2023-05-17T23:34:20.910Z,7.02
2023-05-17T23:36:47.890Z,6.89
2023-05-17T23:39:15.631Z,6.79
2023-05-17T23:41:42.922Z,6.82
2023-05-17T23:44:09.951Z,6.87
2023-05-17T23:46:37.262Z,6.87
2023-05-17T23:49:04.402Z,6.87
2023-05-17T23:51:34.533Z,6.90
2023-05-17T23:54:01.701Z,7.03
2023-05-17T23:56:29.110Z,6.99
2023-05-17T23:58:56.140Z,7.02
